< < Back
Terminal Aerodrome Forecast


Current Version              Previous Versions:   1  2  3  4  5  6  7  8  9  

Terminal Aerodrome Forecast

988
FTUS42 KFFC 020520
TAFCSG
TAF
KCSG 020520Z 0206/0306 00000KT P6SM SCT250
     FM021400 VRB03KT P6SM SCT035 SCT250
     FM021700 32005KT P6SM BKN050
     FM030000 VRB03KT P6SM SCT060 SCT250=



Latest METAR

632
SAUS70 KWBC 030200
MTRCSG
METAR KCSG 030151Z AUTO 00000KT 10SM CLR 28/21 A3000 RMK AO2 SLP152
T02830211


USA.gov is the U.S. government's official web portal to all federal, state and local government web resources and services.